sensor_id;sensor_type;location;lat;lon;timestamp;P1;durP1;ratioP1;P2;durP2;ratioP2
77591;SDS011;66891;46.884;17.436;2023-07-20T00:01:09;4.97;;;1.00;;
77591;SDS011;66891;46.884;17.436;2023-07-20T00:03:38;6.50;;;1.20;;
77591;SDS011;66891;46.884;17.436;2023-07-20T00:06:06;5.72;;;1.13;;
77591;SDS011;66891;46.884;17.436;2023-07-20T00:11:02;6.40;;;1.30;;
77591;SDS011;66891;46.884;17.436;2023-07-20T00:13:29;6.50;;;1.60;;
77591;SDS011;66891;46.884;17.436;2023-07-20T00:15:57;6.60;;;1.80;;
77591;SDS011;66891;46.884;17.436;2023-07-20T00:18:25;6.68;;;1.60;;
77591;SDS011;66891;46.884;17.436;2023-07-20T00:21:00;7.55;;;1.70;;
77591;SDS011;66891;46.884;17.436;2023-07-20T00:24:55;7.25;;;1.45;;
77591;SDS011;66891;46.884;17.436;2023-07-20T00:27:25;5.67;;;1.50;;
77591;SDS011;66891;46.884;17.436;2023-07-20T00:29:54;5.35;;;1.33;;
77591;SDS011;66891;46.884;17.436;2023-07-20T00:32:21;5.90;;;1.15;;
77591;SDS011;66891;46.884;17.436;2023-07-20T00:34:49;6.70;;;1.58;;
77591;SDS011;66891;46.884;17.436;2023-07-20T00:37:19;7.85;;;1.90;;
77591;SDS011;66891;46.884;17.436;2023-07-20T00:39:46;5.83;;;1.40;;
77591;SDS011;66891;46.884;17.436;2023-07-20T00:42:14;7.07;;;1.85;;
77591;SDS011;66891;46.884;17.436;2023-07-20T00:44:42;6.18;;;1.45;;
77591;SDS011;66891;46.884;17.436;2023-07-20T00:47:10;6.45;;;1.70;;
77591;SDS011;66891;46.884;17.436;2023-07-20T00:49:38;7.03;;;1.98;;
77591;SDS011;66891;46.884;17.436;2023-07-20T00:52:06;6.00;;;1.50;;
77591;SDS011;66891;46.884;17.436;2023-07-20T00:54:36;8.00;;;1.50;;
77591;SDS011;66891;46.884;17.436;2023-07-20T00:57:05;9.02;;;1.80;;
77591;SDS011;66891;46.884;17.436;2023-07-20T00:59:35;7.18;;;1.30;;
77591;SDS011;66891;46.884;17.436;2023-07-20T01:02:05;5.28;;;1.25;;
77591;SDS011;66891;46.884;17.436;2023-07-20T01:04:33;6.97;;;2.23;;
77591;SDS011;66891;46.884;17.436;2023-07-20T01:07:13;7.05;;;1.20;;
77591;SDS011;66891;46.884;17.436;2023-07-20T01:09:51;7.25;;;1.50;;
77591;SDS011;66891;46.884;17.436;2023-07-20T01:12:29;5.40;;;1.30;;
77591;SDS011;66891;46.884;17.436;2023-07-20T01:15:00;7.90;;;1.48;;
77591;SDS011;66891;46.884;17.436;2023-07-20T01:17:29;7.00;;;1.50;;
77591;SDS011;66891;46.884;17.436;2023-07-20T01:19:57;7.05;;;1.33;;
77591;SDS011;66891;46.884;17.436;2023-07-20T01:22:31;7.43;;;1.30;;
77591;SDS011;66891;46.884;17.436;2023-07-20T01:25:25;7.22;;;1.30;;
77591;SDS011;66891;46.884;17.436;2023-07-20T01:28:13;7.55;;;1.27;;
77591;SDS011;66891;46.884;17.436;2023-07-20T01:30:59;6.93;;;1.40;;
77591;SDS011;66891;46.884;17.436;2023-07-20T01:33:53;6.53;;;1.38;;
77591;SDS011;66891;46.884;17.436;2023-07-20T01:36:23;5.43;;;1.48;;
77591;SDS011;66891;46.884;17.436;2023-07-20T01:38:56;5.82;;;1.20;;
77591;SDS011;66891;46.884;17.436;2023-07-20T01:41:24;5.75;;;1.27;;
77591;SDS011;66891;46.884;17.436;2023-07-20T01:43:52;5.40;;;1.33;;
77591;SDS011;66891;46.884;17.436;2023-07-20T01:46:21;7.03;;;1.40;;
77591;SDS011;66891;46.884;17.436;2023-07-20T01:48:49;5.60;;;1.30;;
77591;SDS011;66891;46.884;17.436;2023-07-20T01:51:18;6.15;;;1.33;;
77591;SDS011;66891;46.884;17.436;2023-07-20T01:53:46;7.47;;;1.45;;
77591;SDS011;66891;46.884;17.436;2023-07-20T01:56:14;7.23;;;1.10;;
77591;SDS011;66891;46.884;17.436;2023-07-20T01:58:41;7.28;;;1.40;;
77591;SDS011;66891;46.884;17.436;2023-07-20T02:01:09;6.05;;;1.38;;
77591;SDS011;66891;46.884;17.436;2023-07-20T02:03:38;5.78;;;1.55;;
77591;SDS011;66891;46.884;17.436;2023-07-20T02:06:06;6.10;;;1.30;;
77591;SDS011;66891;46.884;17.436;2023-07-20T02:08:35;7.17;;;1.43;;
77591;SDS011;66891;46.884;17.436;2023-07-20T02:11:03;6.65;;;1.30;;
77591;SDS011;66891;46.884;17.436;2023-07-20T02:13:31;6.70;;;1.15;;
77591;SDS011;66891;46.884;17.436;2023-07-20T02:15:59;6.22;;;1.20;;
77591;SDS011;66891;46.884;17.436;2023-07-20T02:18:27;6.65;;;1.20;;
77591;SDS011;66891;46.884;17.436;2023-07-20T02:20:56;7.90;;;1.90;;
77591;SDS011;66891;46.884;17.436;2023-07-20T02:23:25;5.70;;;1.17;;
77591;SDS011;66891;46.884;17.436;2023-07-20T02:25:53;6.85;;;1.63;;
77591;SDS011;66891;46.884;17.436;2023-07-20T02:28:25;6.88;;;1.40;;
77591;SDS011;66891;46.884;17.436;2023-07-20T02:30:57;5.80;;;1.30;;
77591;SDS011;66891;46.884;17.436;2023-07-20T02:33:25;5.93;;;1.57;;
77591;SDS011;66891;46.884;17.436;2023-07-20T02:35:57;5.40;;;1.55;;
77591;SDS011;66891;46.884;17.436;2023-07-20T02:38:25;7.50;;;1.40;;
77591;SDS011;66891;46.884;17.436;2023-07-20T02:40:53;7.15;;;1.40;;
77591;SDS011;66891;46.884;17.436;2023-07-20T02:43:21;6.15;;;1.70;;
77591;SDS011;66891;46.884;17.436;2023-07-20T02:45:50;6.60;;;1.40;;
77591;SDS011;66891;46.884;17.436;2023-07-20T02:48:18;6.18;;;1.30;;
77591;SDS011;66891;46.884;17.436;2023-07-20T02:50:46;5.55;;;1.40;;
77591;SDS011;66891;46.884;17.436;2023-07-20T02:53:17;6.55;;;1.50;;
77591;SDS011;66891;46.884;17.436;2023-07-20T02:55:50;5.97;;;1.48;;
77591;SDS011;66891;46.884;17.436;2023-07-20T02:58:18;6.00;;;1.30;;
77591;SDS011;66891;46.884;17.436;2023-07-20T03:00:46;5.97;;;1.48;;
77591;SDS011;66891;46.884;17.436;2023-07-20T03:03:14;8.65;;;1.40;;
77591;SDS011;66891;46.884;17.436;2023-07-20T03:05:42;6.90;;;2.05;;
77591;SDS011;66891;46.884;17.436;2023-07-20T03:08:14;6.97;;;1.83;;
77591;SDS011;66891;46.884;17.436;2023-07-20T03:10:47;7.63;;;2.20;;
77591;SDS011;66891;46.884;17.436;2023-07-20T03:13:21;11.38;;;2.58;;
77591;SDS011;66891;46.884;17.436;2023-07-20T03:15:57;8.07;;;2.10;;
77591;SDS011;66891;46.884;17.436;2023-07-20T03:18:35;7.75;;;1.90;;
77591;SDS011;66891;46.884;17.436;2023-07-20T03:21:04;7.82;;;2.20;;
77591;SDS011;66891;46.884;17.436;2023-07-20T03:23:41;6.77;;;2.30;;
77591;SDS011;66891;46.884;17.436;2023-07-20T03:26:10;8.52;;;2.50;;
77591;SDS011;66891;46.884;17.436;2023-07-20T03:32:05;6.80;;;2.10;;
77591;SDS011;66891;46.884;17.436;2023-07-20T03:35:26;7.38;;;2.25;;
77591;SDS011;66891;46.884;17.436;2023-07-20T03:39:43;15.03;;;2.33;;
77591;SDS011;66891;46.884;17.436;2023-07-20T03:42:47;8.70;;;2.00;;
77591;SDS011;66891;46.884;17.436;2023-07-20T03:48:32;6.88;;;2.08;;
77591;SDS011;66891;46.884;17.436;2023-07-20T03:51:04;11.13;;;2.47;;
77591;SDS011;66891;46.884;17.436;2023-07-20T03:53:34;7.90;;;2.07;;
77591;SDS011;66891;46.884;17.436;2023-07-20T03:56:04;7.18;;;2.00;;
77591;SDS011;66891;46.884;17.436;2023-07-20T03:58:33;7.82;;;2.05;;
77591;SDS011;66891;46.884;17.436;2023-07-20T04:50:36;7.93;;;2.38;;
77591;SDS011;66891;46.884;17.436;2023-07-20T05:07:40;7.93;;;2.60;;
77591;SDS011;66891;46.884;17.436;2023-07-20T05:16:37;7.70;;;2.95;;
77591;SDS011;66891;46.884;17.436;2023-07-20T05:19:36;8.27;;;2.42;;
77591;SDS011;66891;46.884;17.436;2023-07-20T05:22:27;8.23;;;2.38;;
77591;SDS011;66891;46.884;17.436;2023-07-20T05:25:25;7.57;;;2.70;;
77591;SDS011;66891;46.884;17.436;2023-07-20T05:28:49;9.17;;;2.50;;
77591;SDS011;66891;46.884;17.436;2023-07-20T05:31:23;13.80;;;4.03;;
77591;SDS011;66891;46.884;17.436;2023-07-20T05:33:55;8.15;;;3.20;;
77591;SDS011;66891;46.884;17.436;2023-07-20T05:36:29;11.00;;;4.13;;
77591;SDS011;66891;46.884;17.436;2023-07-20T05:38:58;14.05;;;3.88;;
77591;SDS011;66891;46.884;17.436;2023-07-20T05:41:31;8.57;;;3.00;;
77591;SDS011;66891;46.884;17.436;2023-07-20T05:44:00;9.07;;;3.45;;
77591;SDS011;66891;46.884;17.436;2023-07-20T05:46:28;8.07;;;3.03;;
77591;SDS011;66891;46.884;17.436;2023-07-20T05:49:12;7.93;;;2.88;;
77591;SDS011;66891;46.884;17.436;2023-07-20T05:51:48;6.97;;;2.55;;
77591;SDS011;66891;46.884;17.436;2023-07-20T05:54:16;8.37;;;3.00;;
77591;SDS011;66891;46.884;17.436;2023-07-20T05:56:45;7.57;;;2.90;;
77591;SDS011;66891;46.884;17.436;2023-07-20T05:59:12;8.80;;;3.15;;
77591;SDS011;66891;46.884;17.436;2023-07-20T06:01:40;8.80;;;3.20;;
77591;SDS011;66891;46.884;17.436;2023-07-20T06:04:08;7.55;;;2.40;;
77591;SDS011;66891;46.884;17.436;2023-07-20T06:06:35;14.70;;;4.10;;
77591;SDS011;66891;46.884;17.436;2023-07-20T06:09:03;11.65;;;3.20;;
77591;SDS011;66891;46.884;17.436;2023-07-20T06:11:32;8.90;;;2.97;;
77591;SDS011;66891;46.884;17.436;2023-07-20T06:14:01;8.77;;;2.60;;
77591;SDS011;66891;46.884;17.436;2023-07-20T06:16:29;8.45;;;2.97;;
77591;SDS011;66891;46.884;17.436;2023-07-20T06:18:59;8.50;;;3.10;;
77591;SDS011;66891;46.884;17.436;2023-07-20T06:21:39;9.45;;;3.20;;
77591;SDS011;66891;46.884;17.436;2023-07-20T06:24:09;10.20;;;3.63;;
77591;SDS011;66891;46.884;17.436;2023-07-20T06:26:36;8.82;;;3.30;;
77591;SDS011;66891;46.884;17.436;2023-07-20T06:29:07;7.80;;;3.00;;
77591;SDS011;66891;46.884;17.436;2023-07-20T06:31:38;7.80;;;3.00;;
77591;SDS011;66891;46.884;17.436;2023-07-20T06:34:05;6.72;;;2.65;;
77591;SDS011;66891;46.884;17.436;2023-07-20T06:36:34;8.23;;;2.58;;
77591;SDS011;66891;46.884;17.436;2023-07-20T06:39:02;7.32;;;2.75;;
77591;SDS011;66891;46.884;17.436;2023-07-20T06:41:32;7.70;;;2.72;;
77591;SDS011;66891;46.884;17.436;2023-07-20T06:44:05;7.90;;;2.60;;
77591;SDS011;66891;46.884;17.436;2023-07-20T06:50:05;8.18;;;2.42;;
77591;SDS011;66891;46.884;17.436;2023-07-20T06:52:34;7.88;;;2.80;;
77591;SDS011;66891;46.884;17.436;2023-07-20T06:55:02;9.18;;;2.50;;
77591;SDS011;66891;46.884;17.436;2023-07-20T06:57:32;8.77;;;2.97;;
77591;SDS011;66891;46.884;17.436;2023-07-20T07:00:05;7.93;;;2.80;;
77591;SDS011;66891;46.884;17.436;2023-07-20T07:02:34;8.13;;;2.58;;
77591;SDS011;66891;46.884;17.436;2023-07-20T07:05:02;6.85;;;2.55;;
77591;SDS011;66891;46.884;17.436;2023-07-20T07:07:39;6.85;;;2.58;;
77591;SDS011;66891;46.884;17.436;2023-07-20T07:10:08;7.73;;;2.83;;
77591;SDS011;66891;46.884;17.436;2023-07-20T07:12:36;10.02;;;2.75;;
77591;SDS011;66891;46.884;17.436;2023-07-20T07:17:50;7.38;;;2.50;;
77591;SDS011;66891;46.884;17.436;2023-07-20T07:20:21;10.88;;;2.80;;
77591;SDS011;66891;46.884;17.436;2023-07-20T07:23:03;7.20;;;2.07;;
77591;SDS011;66891;46.884;17.436;2023-07-20T07:25:33;7.35;;;3.10;;
77591;SDS011;66891;46.884;17.436;2023-07-20T07:28:05;7.80;;;2.97;;
77591;SDS011;66891;46.884;17.436;2023-07-20T07:30:33;8.38;;;2.58;;
77591;SDS011;66891;46.884;17.436;2023-07-20T07:33:00;21.05;;;3.47;;
77591;SDS011;66891;46.884;17.436;2023-07-20T07:35:32;7.33;;;2.73;;
77591;SDS011;66891;46.884;17.436;2023-07-20T07:37:59;7.47;;;2.90;;
77591;SDS011;66891;46.884;17.436;2023-07-20T07:40:49;10.15;;;3.42;;
77591;SDS011;66891;46.884;17.436;2023-07-20T07:43:19;6.75;;;2.60;;
77591;SDS011;66891;46.884;17.436;2023-07-20T07:45:46;7.63;;;2.75;;
77591;SDS011;66891;46.884;17.436;2023-07-20T07:48:14;6.87;;;2.90;;
77591;SDS011;66891;46.884;17.436;2023-07-20T07:50:43;7.18;;;2.67;;
77591;SDS011;66891;46.884;17.436;2023-07-20T07:53:12;7.35;;;2.75;;
77591;SDS011;66891;46.884;17.436;2023-07-20T07:55:40;7.60;;;3.17;;
77591;SDS011;66891;46.884;17.436;2023-07-20T07:58:09;10.00;;;3.60;;
77591;SDS011;66891;46.884;17.436;2023-07-20T08:00:38;10.47;;;3.33;;
77591;SDS011;66891;46.884;17.436;2023-07-20T08:03:34;7.50;;;2.80;;
77591;SDS011;66891;46.884;17.436;2023-07-20T08:06:06;9.18;;;2.83;;
77591;SDS011;66891;46.884;17.436;2023-07-20T08:08:34;9.50;;;2.58;;
77591;SDS011;66891;46.884;17.436;2023-07-20T08:11:03;8.10;;;2.72;;
77591;SDS011;66891;46.884;17.436;2023-07-20T08:13:34;9.50;;;3.23;;
77591;SDS011;66891;46.884;17.436;2023-07-20T08:16:01;8.52;;;3.10;;
77591;SDS011;66891;46.884;17.436;2023-07-20T08:18:31;7.57;;;2.95;;
77591;SDS011;66891;46.884;17.436;2023-07-20T08:20:59;7.50;;;2.95;;
77591;SDS011;66891;46.884;17.436;2023-07-20T08:23:28;8.05;;;3.15;;
77591;SDS011;66891;46.884;17.436;2023-07-20T08:25:56;6.80;;;3.00;;
77591;SDS011;66891;46.884;17.436;2023-07-20T08:28:23;9.27;;;3.40;;
77591;SDS011;66891;46.884;17.436;2023-07-20T08:30:54;6.35;;;2.58;;
77591;SDS011;66891;46.884;17.436;2023-07-20T08:33:25;7.10;;;2.70;;
77591;SDS011;66891;46.884;17.436;2023-07-20T08:35:57;7.82;;;2.58;;
77591;SDS011;66891;46.884;17.436;2023-07-20T08:38:24;6.50;;;2.37;;
77591;SDS011;66891;46.884;17.436;2023-07-20T08:40:53;6.22;;;2.55;;
77591;SDS011;66891;46.884;17.436;2023-07-20T08:43:24;7.53;;;2.40;;
77591;SDS011;66891;46.884;17.436;2023-07-20T08:45:53;6.82;;;2.28;;
77591;SDS011;66891;46.884;17.436;2023-07-20T08:48:24;7.68;;;2.70;;
77591;SDS011;66891;46.884;17.436;2023-07-20T08:50:54;6.30;;;2.47;;
77591;SDS011;66891;46.884;17.436;2023-07-20T08:53:30;7.38;;;2.08;;
77591;SDS011;66891;46.884;17.436;2023-07-20T08:56:00;6.57;;;2.20;;
77591;SDS011;66891;46.884;17.436;2023-07-20T08:58:31;6.55;;;2.33;;
77591;SDS011;66891;46.884;17.436;2023-07-20T09:00:59;6.75;;;2.58;;
77591;SDS011;66891;46.884;17.436;2023-07-20T09:03:29;7.60;;;2.40;;
77591;SDS011;66891;46.884;17.436;2023-07-20T09:05:59;6.60;;;2.40;;
77591;SDS011;66891;46.884;17.436;2023-07-20T09:08:27;7.03;;;2.47;;
77591;SDS011;66891;46.884;17.436;2023-07-20T09:10:56;6.25;;;2.78;;
77591;SDS011;66891;46.884;17.436;2023-07-20T09:13:29;7.57;;;2.70;;
77591;SDS011;66891;46.884;17.436;2023-07-20T09:15:57;6.70;;;2.70;;
77591;SDS011;66891;46.884;17.436;2023-07-20T09:18:26;7.10;;;2.50;;
77591;SDS011;66891;46.884;17.436;2023-07-20T09:20:57;7.05;;;2.92;;
77591;SDS011;66891;46.884;17.436;2023-07-20T09:23:32;7.45;;;2.60;;
77591;SDS011;66891;46.884;17.436;2023-07-20T09:26:01;10.60;;;2.75;;
77591;SDS011;66891;46.884;17.436;2023-07-20T09:28:42;8.17;;;2.60;;
77591;SDS011;66891;46.884;17.436;2023-07-20T09:31:15;7.75;;;2.65;;
77591;SDS011;66891;46.884;17.436;2023-07-20T09:33:45;8.85;;;2.92;;
77591;SDS011;66891;46.884;17.436;2023-07-20T09:36:16;5.93;;;2.45;;
77591;SDS011;66891;46.884;17.436;2023-07-20T09:39:04;6.85;;;2.90;;
77591;SDS011;66891;46.884;17.436;2023-07-20T09:41:40;6.20;;;2.57;;
77591;SDS011;66891;46.884;17.436;2023-07-20T09:44:15;7.57;;;2.50;;
77591;SDS011;66891;46.884;17.436;2023-07-20T09:46:47;6.60;;;2.45;;
77591;SDS011;66891;46.884;17.436;2023-07-20T09:49:20;6.55;;;2.40;;
77591;SDS011;66891;46.884;17.436;2023-07-20T09:51:55;6.20;;;2.38;;
77591;SDS011;66891;46.884;17.436;2023-07-20T09:54:24;7.10;;;2.70;;
77591;SDS011;66891;46.884;17.436;2023-07-20T09:56:54;6.50;;;2.60;;
77591;SDS011;66891;46.884;17.436;2023-07-20T09:59:25;8.13;;;2.60;;
77591;SDS011;66891;46.884;17.436;2023-07-20T10:01:53;6.88;;;2.10;;
77591;SDS011;66891;46.884;17.436;2023-07-20T10:04:29;6.68;;;2.60;;
77591;SDS011;66891;46.884;17.436;2023-07-20T10:06:57;6.90;;;2.43;;
77591;SDS011;66891;46.884;17.436;2023-07-20T10:09:35;7.22;;;2.28;;
77591;SDS011;66891;46.884;17.436;2023-07-20T10:12:07;6.50;;;2.05;;
77591;SDS011;66891;46.884;17.436;2023-07-20T10:14:49;6.78;;;2.33;;
77591;SDS011;66891;46.884;17.436;2023-07-20T10:17:23;6.30;;;2.25;;
77591;SDS011;66891;46.884;17.436;2023-07-20T10:19:54;11.43;;;2.97;;
77591;SDS011;66891;46.884;17.436;2023-07-20T10:22:26;7.25;;;2.70;;
77591;SDS011;66891;46.884;17.436;2023-07-20T10:24:57;6.53;;;2.08;;
77591;SDS011;66891;46.884;17.436;2023-07-20T10:27:26;8.60;;;2.65;;
77591;SDS011;66891;46.884;17.436;2023-07-20T10:30:03;6.50;;;2.75;;
77591;SDS011;66891;46.884;17.436;2023-07-20T10:32:38;7.93;;;2.80;;
77591;SDS011;66891;46.884;17.436;2023-07-20T10:35:12;6.35;;;2.55;;
77591;SDS011;66891;46.884;17.436;2023-07-20T10:37:50;7.65;;;2.60;;
77591;SDS011;66891;46.884;17.436;2023-07-20T10:43:12;5.20;;;1.75;;
77591;SDS011;66891;46.884;17.436;2023-07-20T10:45:49;5.40;;;1.77;;
77591;SDS011;66891;46.884;17.436;2023-07-20T10:48:20;5.97;;;1.75;;
77591;SDS011;66891;46.884;17.436;2023-07-20T10:53:43;5.68;;;2.05;;
77591;SDS011;66891;46.884;17.436;2023-07-20T10:56:11;7.03;;;2.17;;
77591;SDS011;66891;46.884;17.436;2023-07-20T10:58:43;5.63;;;1.83;;
77591;SDS011;66891;46.884;17.436;2023-07-20T11:01:14;9.57;;;1.90;;
77591;SDS011;66891;46.884;17.436;2023-07-20T11:03:48;6.75;;;1.90;;
77591;SDS011;66891;46.884;17.436;2023-07-20T11:06:29;7.18;;;2.03;;
77591;SDS011;66891;46.884;17.436;2023-07-20T11:09:06;5.40;;;2.17;;
77591;SDS011;66891;46.884;17.436;2023-07-20T11:11:38;5.50;;;2.33;;
77591;SDS011;66891;46.884;17.436;2023-07-20T11:14:07;6.18;;;2.10;;
77591;SDS011;66891;46.884;17.436;2023-07-20T11:16:37;5.93;;;2.08;;
77591;SDS011;66891;46.884;17.436;2023-07-20T11:21:59;5.70;;;2.40;;
77591;SDS011;66891;46.884;17.436;2023-07-20T11:24:31;5.40;;;1.63;;
77591;SDS011;66891;46.884;17.436;2023-07-20T11:26:59;4.63;;;1.65;;
77591;SDS011;66891;46.884;17.436;2023-07-20T11:29:30;5.45;;;2.25;;
77591;SDS011;66891;46.884;17.436;2023-07-20T11:32:01;5.53;;;2.20;;
77591;SDS011;66891;46.884;17.436;2023-07-20T11:34:31;5.40;;;2.25;;
77591;SDS011;66891;46.884;17.436;2023-07-20T11:37:01;6.97;;;2.43;;
77591;SDS011;66891;46.884;17.436;2023-07-20T11:39:35;7.05;;;2.22;;
77591;SDS011;66891;46.884;17.436;2023-07-20T11:42:03;6.43;;;2.28;;
77591;SDS011;66891;46.884;17.436;2023-07-20T11:44:33;6.00;;;1.90;;
77591;SDS011;66891;46.884;17.436;2023-07-20T11:47:05;6.20;;;2.42;;
77591;SDS011;66891;46.884;17.436;2023-07-20T11:49:34;7.53;;;2.73;;
77591;SDS011;66891;46.884;17.436;2023-07-20T11:52:10;5.97;;;2.78;;
77591;SDS011;66891;46.884;17.436;2023-07-20T11:54:40;5.60;;;2.35;;
77591;SDS011;66891;46.884;17.436;2023-07-20T11:57:17;5.50;;;2.35;;
77591;SDS011;66891;46.884;17.436;2023-07-20T11:59:53;6.97;;;2.22;;
77591;SDS011;66891;46.884;17.436;2023-07-20T12:02:26;6.27;;;2.73;;
77591;SDS011;66891;46.884;17.436;2023-07-20T12:04:55;6.32;;;2.65;;
77591;SDS011;66891;46.884;17.436;2023-07-20T12:07:25;6.15;;;2.55;;
77591;SDS011;66891;46.884;17.436;2023-07-20T12:10:05;6.70;;;2.53;;
77591;SDS011;66891;46.884;17.436;2023-07-20T12:12:33;5.38;;;2.22;;
77591;SDS011;66891;46.884;17.436;2023-07-20T12:18:17;6.35;;;2.55;;
77591;SDS011;66891;46.884;17.436;2023-07-20T12:20:44;6.18;;;2.45;;
77591;SDS011;66891;46.884;17.436;2023-07-20T12:23:12;5.90;;;2.60;;
77591;SDS011;66891;46.884;17.436;2023-07-20T12:25:41;6.55;;;3.17;;
77591;SDS011;66891;46.884;17.436;2023-07-20T12:28:10;5.63;;;2.90;;
77591;SDS011;66891;46.884;17.436;2023-07-20T12:30:38;6.18;;;2.58;;
77591;SDS011;66891;46.884;17.436;2023-07-20T12:33:06;7.50;;;2.78;;
77591;SDS011;66891;46.884;17.436;2023-07-20T12:35:36;7.22;;;3.08;;
77591;SDS011;66891;46.884;17.436;2023-07-20T12:38:04;7.25;;;3.20;;
77591;SDS011;66891;46.884;17.436;2023-07-20T12:40:33;6.67;;;3.03;;
77591;SDS011;66891;46.884;17.436;2023-07-20T12:43:01;7.47;;;3.15;;
77591;SDS011;66891;46.884;17.436;2023-07-20T12:45:28;6.38;;;2.97;;
77591;SDS011;66891;46.884;17.436;2023-07-20T12:47:56;6.90;;;3.03;;
77591;SDS011;66891;46.884;17.436;2023-07-20T12:50:24;7.22;;;3.30;;
77591;SDS011;66891;46.884;17.436;2023-07-20T12:52:53;7.03;;;3.53;;
77591;SDS011;66891;46.884;17.436;2023-07-20T12:55:20;7.63;;;3.13;;
77591;SDS011;66891;46.884;17.436;2023-07-20T12:57:48;6.95;;;3.42;;
77591;SDS011;66891;46.884;17.436;2023-07-20T13:00:15;6.25;;;3.10;;
77591;SDS011;66891;46.884;17.436;2023-07-20T13:02:44;6.68;;;2.90;;
77591;SDS011;66891;46.884;17.436;2023-07-20T13:05:13;6.27;;;2.47;;
77591;SDS011;66891;46.884;17.436;2023-07-20T13:07:41;6.35;;;2.70;;
77591;SDS011;66891;46.884;17.436;2023-07-20T13:10:30;7.32;;;2.85;;
77591;SDS011;66891;46.884;17.436;2023-07-20T13:13:03;6.78;;;2.53;;
77591;SDS011;66891;46.884;17.436;2023-07-20T13:15:40;5.82;;;2.40;;
77591;SDS011;66891;46.884;17.436;2023-07-20T13:18:08;6.40;;;2.30;;
77591;SDS011;66891;46.884;17.436;2023-07-20T13:20:39;7.53;;;2.90;;
77591;SDS011;66891;46.884;17.436;2023-07-20T13:23:08;6.97;;;2.30;;
77591;SDS011;66891;46.884;17.436;2023-07-20T13:25:37;6.65;;;2.65;;
77591;SDS011;66891;46.884;17.436;2023-07-20T13:28:05;6.55;;;2.47;;
77591;SDS011;66891;46.884;17.436;2023-07-20T13:30:32;7.17;;;2.30;;
77591;SDS011;66891;46.884;17.436;2023-07-20T13:33:00;7.57;;;2.85;;
77591;SDS011;66891;46.884;17.436;2023-07-20T13:35:33;5.07;;;1.90;;
77591;SDS011;66891;46.884;17.436;2023-07-20T13:38:06;5.70;;;2.25;;
77591;SDS011;66891;46.884;17.436;2023-07-20T13:40:33;7.47;;;2.40;;
77591;SDS011;66891;46.884;17.436;2023-07-20T13:43:18;6.07;;;2.27;;
77591;SDS011;66891;46.884;17.436;2023-07-20T13:45:46;6.57;;;2.20;;
77591;SDS011;66891;46.884;17.436;2023-07-20T13:48:13;5.13;;;1.92;;
77591;SDS011;66891;46.884;17.436;2023-07-20T13:50:43;5.72;;;2.30;;
77591;SDS011;66891;46.884;17.436;2023-07-20T13:53:28;6.68;;;2.53;;
77591;SDS011;66891;46.884;17.436;2023-07-20T13:55:58;4.93;;;1.90;;
77591;SDS011;66891;46.884;17.436;2023-07-20T13:58:30;5.53;;;2.30;;
77591;SDS011;66891;46.884;17.436;2023-07-20T14:00:59;6.40;;;1.83;;
77591;SDS011;66891;46.884;17.436;2023-07-20T14:03:27;5.65;;;2.10;;
77591;SDS011;66891;46.884;17.436;2023-07-20T14:05:55;6.35;;;1.70;;
77591;SDS011;66891;46.884;17.436;2023-07-20T14:08:26;5.63;;;1.70;;
77591;SDS011;66891;46.884;17.436;2023-07-20T14:10:54;5.28;;;1.88;;
77591;SDS011;66891;46.884;17.436;2023-07-20T14:13:25;5.18;;;1.50;;
77591;SDS011;66891;46.884;17.436;2023-07-20T14:16:17;5.05;;;1.48;;
77591;SDS011;66891;46.884;17.436;2023-07-20T14:18:46;6.85;;;2.00;;
77591;SDS011;66891;46.884;17.436;2023-07-20T14:21:16;6.00;;;1.83;;
77591;SDS011;66891;46.884;17.436;2023-07-20T14:23:44;6.05;;;2.00;;
77591;SDS011;66891;46.884;17.436;2023-07-20T14:26:13;5.20;;;1.60;;
77591;SDS011;66891;46.884;17.436;2023-07-20T14:28:41;5.40;;;1.70;;
77591;SDS011;66891;46.884;17.436;2023-07-20T14:31:11;5.72;;;1.67;;
77591;SDS011;66891;46.884;17.436;2023-07-20T14:33:41;5.93;;;1.80;;
77591;SDS011;66891;46.884;17.436;2023-07-20T14:36:09;6.65;;;1.83;;
77591;SDS011;66891;46.884;17.436;2023-07-20T14:38:38;5.45;;;1.98;;
77591;SDS011;66891;46.884;17.436;2023-07-20T14:41:11;5.95;;;1.80;;
77591;SDS011;66891;46.884;17.436;2023-07-20T14:43:38;5.20;;;1.65;;
77591;SDS011;66891;46.884;17.436;2023-07-20T14:46:06;8.10;;;1.43;;
77591;SDS011;66891;46.884;17.436;2023-07-20T14:48:33;5.00;;;1.73;;
77591;SDS011;66891;46.884;17.436;2023-07-20T14:51:03;5.30;;;1.70;;
77591;SDS011;66891;46.884;17.436;2023-07-20T14:53:31;5.20;;;1.33;;
77591;SDS011;66891;46.884;17.436;2023-07-20T14:56:03;5.43;;;1.50;;
77591;SDS011;66891;46.884;17.436;2023-07-20T14:58:31;4.70;;;1.50;;
77591;SDS011;66891;46.884;17.436;2023-07-20T15:01:02;5.47;;;1.52;;
77591;SDS011;66891;46.884;17.436;2023-07-20T15:03:31;5.00;;;1.70;;
77591;SDS011;66891;46.884;17.436;2023-07-20T15:05:58;6.72;;;1.67;;
77591;SDS011;66891;46.884;17.436;2023-07-20T15:08:28;5.35;;;1.40;;
77591;SDS011;66891;46.884;17.436;2023-07-20T15:10:56;5.50;;;1.80;;
77591;SDS011;66891;46.884;17.436;2023-07-20T15:13:23;4.70;;;1.63;;
77591;SDS011;66891;46.884;17.436;2023-07-20T15:15:51;6.20;;;1.80;;
77591;SDS011;66891;46.884;17.436;2023-07-20T15:18:19;8.13;;;2.05;;
77591;SDS011;66891;46.884;17.436;2023-07-20T15:21:04;7.32;;;1.40;;
77591;SDS011;66891;46.884;17.436;2023-07-20T15:23:33;5.10;;;1.43;;
77591;SDS011;66891;46.884;17.436;2023-07-20T15:26:00;7.80;;;2.40;;
77591;SDS011;66891;46.884;17.436;2023-07-20T15:28:28;5.97;;;1.55;;
77591;SDS011;66891;46.884;17.436;2023-07-20T15:30:59;5.68;;;2.00;;
77591;SDS011;66891;46.884;17.436;2023-07-20T15:33:27;4.97;;;1.20;;
77591;SDS011;66891;46.884;17.436;2023-07-20T15:35:55;5.43;;;1.50;;
77591;SDS011;66891;46.884;17.436;2023-07-20T15:38:27;5.45;;;1.88;;
77591;SDS011;66891;46.884;17.436;2023-07-20T15:41:01;6.32;;;1.85;;
77591;SDS011;66891;46.884;17.436;2023-07-20T15:43:34;5.68;;;1.67;;
77591;SDS011;66891;46.884;17.436;2023-07-20T15:46:54;5.03;;;1.63;;
77591;SDS011;66891;46.884;17.436;2023-07-20T15:49:23;5.00;;;1.57;;
77591;SDS011;66891;46.884;17.436;2023-07-20T15:52:13;5.78;;;1.50;;
77591;SDS011;66891;46.884;17.436;2023-07-20T15:54:47;5.40;;;1.58;;
77591;SDS011;66891;46.884;17.436;2023-07-20T15:57:18;5.00;;;1.45;;
77591;SDS011;66891;46.884;17.436;2023-07-20T15:59:46;7.78;;;1.95;;
77591;SDS011;66891;46.884;17.436;2023-07-20T16:02:14;5.23;;;1.50;;
77591;SDS011;66891;46.884;17.436;2023-07-20T16:04:43;5.65;;;1.60;;
77591;SDS011;66891;46.884;17.436;2023-07-20T16:07:21;5.65;;;1.80;;
77591;SDS011;66891;46.884;17.436;2023-07-20T16:09:49;6.43;;;1.58;;
77591;SDS011;66891;46.884;17.436;2023-07-20T16:15:09;5.13;;;1.30;;
77591;SDS011;66891;46.884;17.436;2023-07-20T16:17:37;4.95;;;1.10;;
77591;SDS011;66891;46.884;17.436;2023-07-20T16:20:05;7.00;;;1.50;;
77591;SDS011;66891;46.884;17.436;2023-07-20T16:22:37;5.28;;;1.42;;
77591;SDS011;66891;46.884;17.436;2023-07-20T16:25:05;7.75;;;1.60;;
77591;SDS011;66891;46.884;17.436;2023-07-20T16:31:38;5.60;;;1.45;;
77591;SDS011;66891;46.884;17.436;2023-07-20T16:34:26;5.07;;;1.20;;
77591;SDS011;66891;46.884;17.436;2023-07-20T16:36:53;5.35;;;1.85;;
77591;SDS011;66891;46.884;17.436;2023-07-20T16:39:23;5.53;;;1.50;;
77591;SDS011;66891;46.884;17.436;2023-07-20T16:41:54;6.10;;;1.90;;
77591;SDS011;66891;46.884;17.436;2023-07-20T16:44:24;5.57;;;1.40;;
77591;SDS011;66891;46.884;17.436;2023-07-20T16:46:53;5.68;;;1.50;;